メインページ
METAR-TAF:

METAR-TAF

空港 :

トリポリ, リビア

Mitiga International Airport

緯度: 32-54N, 経度: 13-17E, 海抜: 11m

現時点の気象観測

当レポートは58分前の14:50(UTC)に作成
北東の風 12kt
気温 20°C
湿度 68%
気圧 1019 hPa
視程: 7000m
高度2000ftの雲は散在している
高度7000ftの雲は散在している

METAR: HLLM 191450Z 05012KT 7000 SCT020 SCT070 20/14 Q1019

時間: 17:48 (15:48 UTC)

予報

当レポートは4時間48分前の11:00(UTC)に作成
予報は19日の 12時(UTC)から 20日の 12時(UTC)まで有効
東/北東の風 12kt
視程: 8000m
高度1800ftの雲はほとんどない
高度2500ftの雲は散在している
19日の 18時(UTC)から 20日の 08時(UTC)まで一時的に
視程: 0800m
高度1000ftの千切れ雲あり

TAF: HLLM 191100Z 1912/2012 06012KT 8000 FEW018 SCT025 TEMPO 1918/2008 0800 BKN010

4,000以上の空港の気象観測と天気予報(METAR報とTAF報)

利用可能な観測所は地図上に黄色い丸と赤い丸で示す。

丸の上にカーソルを重ねると観測所名を参照できる。

次にクリックすると気象観測と天気予報を参照できる。

マップの切り替え:黒色「×」印の緑ボタンをクリックして拡大、「-」印の緑ボタンをクリックして縮小、緑色の三角印をクリックして隣りの地図に切り替え


METAR-TAF: